Time;durP1;ratioP1;P1;durP2;ratioP2;P2;SDS_P1;SDS_P2;PMS_P1;PMS_P2;Temp;Humidity;BMP_temperature;BMP_pressure;BME280_temperature;BME280_humidity;BME280_pressure;Samples;Min_cycle;Max_cycle;Signal;HPM_P1;HPM_P2
2022/07/18 00:02:32;;;;;;;3.80;3.50;;;14.90;99.90;15.30;97779.00;;;;5050019;28;20824;-85
2022/07/18 00:05:20;;;;;;;4.70;4.03;;;14.80;99.90;15.80;97783.00;;;;5033333;28;20206;-84
2022/07/18 00:08:09;;;;;;;4.97;4.13;;;14.70;99.90;16.20;97788.00;;;;5042820;28;20217;-84
2022/07/18 00:10:58;;;;;;;4.90;4.10;;;14.80;99.90;16.10;97781.00;;;;5037720;28;20228;-85
2022/07/18 00:13:47;;;;;;;3.73;3.43;;;14.90;99.90;15.80;97794.00;;;;5036049;28;20216;-85
2022/07/18 00:16:37;;;;;;;5.20;3.77;;;14.80;99.90;16.00;97785.00;;;;5035635;28;20238;-84
2022/07/18 00:19:27;;;;;;;4.13;3.73;;;14.80;99.90;16.20;97788.00;;;;5044083;28;20687;-84
2022/07/18 00:22:15;;;;;;;5.27;4.07;;;14.90;99.90;16.30;97792.00;;;;5032824;28;20221;-84
2022/07/18 00:25:05;;;;;;;5.27;4.10;;;14.90;99.90;16.00;97785.00;;;;5101131;23;20253;-86
2022/07/18 00:27:54;;;;;;;4.67;4.27;;;14.90;99.90;15.40;97783.00;;;;5110598;28;20226;-85
2022/07/18 00:30:43;;;;;;;4.97;4.47;;;14.80;99.90;15.40;97787.00;;;;5099609;28;20222;-86
2022/07/18 00:33:33;;;;;;;5.97;4.10;;;14.70;99.90;15.20;97787.00;;;;5099805;28;20207;-86
2022/07/18 00:36:22;;;;;;;4.03;3.73;;;14.60;99.90;15.50;97795.00;;;;5096326;28;20204;-86
2022/07/18 00:39:11;;;;;;;4.63;4.20;;;14.50;99.90;15.70;97783.00;;;;5093373;28;20220;-86
2022/07/18 00:42:00;;;;;;;4.27;3.87;;;14.50;99.90;15.80;97792.00;;;;5091652;28;20199;-87
2022/07/18 00:44:54;;;;;;;5.70;4.13;;;14.60;99.90;16.00;97794.00;;;;5083437;28;20210;-86
2022/07/18 00:47:43;;;;;;;4.90;3.67;;;14.60;99.90;15.80;97796.00;;;;5079616;28;20570;-88
2022/07/18 00:50:33;;;;;;;8.13;4.37;;;14.60;99.90;15.50;97793.00;;;;5095939;28;20223;-86
2022/07/18 00:53:23;;;;;;;4.30;3.90;;;14.60;99.90;15.20;97789.00;;;;5097537;28;20202;-86
2022/07/18 00:56:14;;;;;;;5.17;4.17;;;14.50;99.90;15.00;97788.00;;;;5097991;28;20210;-84
2022/07/18 00:59:03;;;;;;;5.60;5.00;;;14.40;99.90;15.10;97795.00;;;;5088521;28;20235;-87
2022/07/18 01:01:51;;;;;;;5.00;4.53;;;14.30;99.90;15.10;97786.00;;;;5091300;28;20572;-86
2022/07/18 01:04:40;;;;;;;6.87;4.90;;;14.20;99.90;15.50;97793.00;;;;5085600;28;20209;-87
2022/07/18 01:07:30;;;;;;;5.47;3.77;;;14.20;99.90;15.70;97778.00;;;;5080447;28;20568;-86
2022/07/18 01:10:19;;;;;;;5.17;4.67;;;14.30;99.90;15.80;97790.00;;;;5101479;28;20215;-86
2022/07/18 01:13:08;;;;;;;7.33;4.73;;;14.30;99.90;15.70;97783.00;;;;5095777;28;20202;-86
2022/07/18 01:15:57;;;;;;;4.67;4.13;;;14.40;99.90;15.50;97776.00;;;;5100991;28;20207;-87
2022/07/18 01:18:47;;;;;;;4.60;4.20;;;14.50;99.90;15.40;97783.00;;;;5092910;28;20301;-86
2022/07/18 01:21:38;;;;;;;4.90;4.40;;;14.40;99.90;15.40;97780.00;;;;5091425;28;20203;-86
2022/07/18 01:24:27;;;;;;;8.83;4.53;;;14.40;99.90;15.00;97779.00;;;;5083303;28;20210;-84
2022/07/18 01:27:18;;;;;;;6.33;4.30;;;14.30;99.90;15.00;97780.00;;;;5103395;28;20239;-86
2022/07/18 01:30:09;;;;;;;5.23;4.80;;;14.20;99.90;15.00;97779.00;;;;5090356;28;20220;-86
2022/07/18 01:33:01;;;;;;;8.47;3.83;;;14.10;99.90;14.70;97772.00;;;;5095577;28;20210;-85
2022/07/18 01:35:51;;;;;;;6.63;4.20;;;14.10;99.90;14.60;97771.00;;;;5098508;28;20668;-86
2022/07/18 01:38:41;;;;;;;4.87;4.47;;;14.00;99.90;14.90;97770.00;;;;5091749;28;20578;-86
2022/07/18 01:41:29;;;;;;;4.63;4.00;;;14.00;99.90;14.60;97766.00;;;;5088981;28;20196;-84
2022/07/18 01:44:18;;;;;;;5.07;4.30;;;13.90;99.90;14.80;97759.00;;;;5088306;28;20204;-86
2022/07/18 01:47:11;;;;;;;8.50;4.17;;;13.90;99.90;15.00;97769.00;;;;5102822;28;20200;-86
2022/07/18 01:49:59;;;;;;;5.07;4.67;;;13.90;99.90;15.10;97762.00;;;;5111654;28;20208;-86
2022/07/18 01:52:48;;;;;;;4.97;4.57;;;13.90;99.90;14.80;97755.00;;;;5108536;28;20214;-86
2022/07/18 01:55:38;;;;;;;4.73;4.33;;;13.90;99.90;14.60;97760.00;;;;5096728;28;20202;-86
2022/07/18 01:58:27;;;;;;;4.90;4.50;;;13.80;99.90;14.80;97751.00;;;;5093879;28;20203;-86
2022/07/18 02:01:16;;;;;;;6.63;4.57;;;13.80;99.90;14.70;97754.00;;;;5090224;28;20203;-86
2022/07/18 02:04:05;;;;;;;8.63;5.00;;;13.80;99.90;14.40;97753.00;;;;5086162;28;20204;-85
2022/07/18 02:06:54;;;;;;;4.70;4.30;;;13.70;99.90;14.60;97756.00;;;;5096442;28;20203;-86
2022/07/18 02:09:43;;;;;;;5.23;4.47;;;13.70;99.90;14.40;97756.00;;;;5106983;28;20226;-85
2022/07/18 02:12:33;;;;;;;4.90;3.87;;;13.60;99.90;14.20;97769.00;;;;5098588;28;20196;-84
2022/07/18 02:15:22;;;;;;;4.50;4.20;;;13.50;99.90;14.20;97765.00;;;;5096081;28;20637;-87
2022/07/18 02:18:11;;;;;;;5.73;4.53;;;13.50;99.90;14.40;97759.00;;;;5090837;28;20207;-87
2022/07/18 02:21:00;;;;;;;5.27;4.77;;;13.40;99.90;14.60;97755.00;;;;5094620;28;20218;-87
2022/07/18 02:23:50;;;;;;;5.63;4.97;;;13.40;99.90;14.90;97773.00;;;;5087740;28;20210;-87
2022/07/18 02:26:39;;;;;;;5.07;4.57;;;13.50;99.90;14.90;97767.00;;;;5087321;28;20199;-86
2022/07/18 02:29:29;;;;;;;4.57;4.10;;;13.60;99.90;14.60;97757.00;;;;5095204;28;20329;-88
2022/07/18 02:32:18;;;;;;;4.70;4.30;;;13.60;99.90;14.60;97760.00;;;;5095826;28;20230;-86
2022/07/18 02:35:08;;;;;;;5.30;4.40;;;13.60;99.90;14.70;97767.00;;;;5092166;28;20214;-87
2022/07/18 02:37:57;;;;;;;5.37;3.90;;;13.60;99.90;14.60;97768.00;;;;5089792;28;20199;-86
2022/07/18 02:40:46;;;;;;;5.17;4.67;;;13.60;99.90;14.50;97757.00;;;;5085520;28;20231;-87
2022/07/18 02:43:35;;;;;;;4.87;4.47;;;13.50;99.90;14.50;97774.00;;;;5079773;28;20200;-87
2022/07/18 02:46:25;;;;;;;4.17;3.80;;;13.50;99.90;14.40;97760.00;;;;5087995;28;20199;-86
2022/07/18 02:49:26;;;;;;;5.17;4.67;;;13.50;99.90;14.30;97766.00;;;;5091855;28;20226;-86
2022/07/18 02:52:15;;;;;;;5.17;4.77;;;13.40;99.90;14.50;97758.00;;;;5108156;28;20210;-87
2022/07/18 02:55:05;;;;;;;7.23;4.97;;;13.50;99.90;14.40;97757.00;;;;5097605;28;20195;-86
2022/07/18 02:57:54;;;;;;;5.53;4.73;;;13.40;99.90;14.20;97758.00;;;;5093956;28;20207;-86
2022/07/18 03:00:43;;;;;;;5.37;4.50;;;13.40;99.90;14.20;97761.00;;;;5091776;28;20299;-86
2022/07/18 03:03:33;;;;;;;5.63;5.10;;;13.30;99.90;14.10;97768.00;;;;5089732;28;20243;-86
2022/07/18 03:06:22;;;;;;;6.27;4.80;;;13.30;99.90;14.30;97760.00;;;;5087309;28;20211;-88
2022/07/18 03:09:10;;;;;;;5.80;5.20;;;13.30;99.90;14.10;97765.00;;;;5108533;28;20232;-86
2022/07/18 03:11:59;;;;;;;7.03;6.03;;;13.20;99.90;14.40;97769.00;;;;5102683;28;20203;-87
2022/07/18 03:14:48;;;;;;;6.90;5.43;;;13.20;99.90;14.50;97772.00;;;;5104911;28;20203;-85
2022/07/18 03:17:37;;;;;;;6.27;4.90;;;13.30;99.90;14.30;97766.00;;;;5099564;28;20188;-85
2022/07/18 03:20:27;;;;;;;6.30;4.83;;;13.30;99.90;14.00;97760.00;;;;5096878;28;20230;-85
2022/07/18 03:23:16;;;;;;;5.87;5.30;;;13.30;99.90;13.80;97769.00;;;;5091399;28;20657;-86
2022/07/18 03:26:05;;;;;;;4.93;4.50;;;13.20;99.90;14.00;97759.00;;;;5082991;28;20213;-86
2022/07/18 03:28:54;;;;;;;5.53;5.00;;;13.10;99.90;13.80;97773.00;;;;5088634;28;20236;-85
2022/07/18 03:31:42;;;;;;;6.30;5.50;;;13.10;99.90;14.00;97766.00;;;;5102305;28;20230;-86
2022/07/18 03:34:31;;;;;;;6.20;5.70;;;13.10;99.90;13.90;97765.00;;;;5096034;28;20915;-87
2022/07/18 03:37:21;;;;;;;5.30;4.80;;;13.10;99.90;14.10;97781.00;;;;5104542;28;20592;-87
2022/07/18 03:40:11;;;;;;;5.77;5.27;;;13.10;99.90;14.10;97773.00;;;;5100062;28;20223;-86
2022/07/18 03:43:00;;;;;;;6.17;5.63;;;13.10;99.90;14.40;97783.00;;;;5092095;28;20204;-86
2022/07/18 03:45:49;;;;;;;6.07;5.57;;;13.20;99.90;14.40;97778.00;;;;5094412;28;20211;-86
2022/07/18 03:48:38;;;;;;;6.03;5.43;;;13.20;99.90;14.70;97778.00;;;;5089147;28;20210;-87
2022/07/18 03:51:27;;;;;;;4.90;4.00;;;13.30;99.90;14.70;97779.00;;;;5110749;28;20196;-87
2022/07/18 03:54:17;;;;;;;6.17;4.63;;;13.40;99.90;14.80;97790.00;;;;5104585;28;20198;-87
2022/07/18 03:57:06;;;;;;;6.17;5.20;;;13.40;99.90;14.70;97783.00;;;;5110030;28;20225;-87
2022/07/18 03:59:55;;;;;;;5.80;5.20;;;13.50;99.90;14.70;97781.00;;;;5099966;28;20229;-86
2022/07/18 04:02:46;;;;;;;4.87;4.37;;;13.50;99.90;14.40;97778.00;;;;5103799;28;20672;-87
2022/07/18 04:05:35;;;;;;;6.07;4.80;;;13.50;99.90;14.50;97784.00;;;;5091310;28;20515;-87
2022/07/18 04:08:24;;;;;;;7.73;5.13;;;13.40;99.90;14.40;97788.00;;;;5122425;28;20227;-85
2022/07/18 04:11:14;;;;;;;5.30;4.90;;;13.40;99.90;14.40;97789.00;;;;5112785;28;21363;-86
2022/07/18 04:14:06;;;;;;;5.20;4.80;;;13.40;99.90;14.30;97785.00;;;;5113034;28;20226;-85
2022/07/18 04:16:55;;;;;;;7.33;5.40;;;13.40;99.90;14.20;97789.00;;;;5100791;28;20207;-86
2022/07/18 04:19:43;;;;;;;6.17;5.60;;;13.40;99.90;14.40;97788.00;;;;5106375;28;20227;-87
2022/07/18 04:22:32;;;;;;;5.17;4.70;;;13.40;99.90;14.10;97776.00;;;;5117497;28;20202;-85
2022/07/18 04:25:25;;;;;;;6.53;5.10;;;13.30;99.90;13.90;97779.00;;;;5116162;28;20217;-85
2022/07/18 04:28:15;;;;;;;6.00;5.40;;;13.30;99.90;14.00;97778.00;;;;5107251;28;20210;-84
2022/07/18 04:31:04;;;;;;;5.80;5.30;;;13.20;99.90;14.50;97778.00;;;;5103470;28;20191;-86
2022/07/18 04:33:53;;;;;;;5.77;5.17;;;13.30;99.90;14.50;97781.00;;;;5105536;28;20207;-86
2022/07/18 04:36:42;;;;;;;5.50;5.00;;;13.40;99.90;14.60;97774.00;;;;5093970;28;20656;-86
2022/07/18 04:39:30;;;;;;;6.27;5.70;;;13.40;99.90;14.70;97776.00;;;;5101637;28;20227;-87
2022/07/18 04:42:19;;;;;;;6.00;5.40;;;13.50;99.90;15.00;97783.00;;;;5100755;28;20200;-87
2022/07/18 04:45:11;;;;;;;5.73;5.20;;;13.70;99.90;15.30;97777.00;;;;5109422;28;20266;-86
2022/07/18 04:48:00;;;;;;;5.30;4.83;;;13.80;99.90;15.70;97783.00;;;;5131146;22;20238;-71
2022/07/18 04:50:48;;;;;;;5.80;5.17;;;13.90;99.90;15.70;97787.00;;;;5069572;28;20207;-70
2022/07/18 04:53:37;;;;;;;13.97;5.30;;;14.10;99.90;15.70;97779.00;;;;5077336;28;20230;-70
2022/07/18 04:56:26;;;;;;;4.83;4.43;;;14.20;99.90;15.70;97781.00;;;;5079217;28;20199;-70
2022/07/18 04:59:14;;;;;;;7.13;4.73;;;14.30;99.90;15.60;97780.00;;;;5090662;28;20596;-71
2022/07/18 05:02:05;;;;;;;5.17;4.77;;;14.40;99.90;15.30;97779.00;;;;5089584;28;20223;-70
2022/07/18 05:04:53;;;;;;;6.57;5.13;;;14.30;99.90;15.40;97769.00;;;;5089424;28;20678;-72
2022/07/18 05:07:44;;;;;;;5.03;4.53;;;14.40;99.90;15.30;97770.00;;;;5089153;28;20202;-70
2022/07/18 05:10:33;;;;;;;5.33;4.83;;;14.40;99.90;15.30;97775.00;;;;5077036;28;20218;-69
2022/07/18 05:13:22;;;;;;;5.90;4.87;;;14.40;99.90;15.50;97772.00;;;;5088225;28;20231;-70
2022/07/18 05:16:11;;;;;;;7.13;4.50;;;14.40;99.90;15.50;97771.00;;;;5082458;28;20200;-69
2022/07/18 05:19:01;;;;;;;5.20;4.73;;;14.40;99.90;15.60;97770.00;;;;5076581;28;20224;-68
2022/07/18 05:21:50;;;;;;;5.60;5.03;;;14.50;99.90;15.80;97774.00;;;;5088005;28;20681;-69
2022/07/18 05:24:38;;;;;;;5.57;5.07;;;14.60;99.90;16.00;97769.00;;;;5087000;28;20206;-69
2022/07/18 05:27:27;;;;;;;5.93;4.73;;;14.70;99.90;16.00;97761.00;;;;5079489;28;20215;-70
2022/07/18 05:30:16;;;;;;;6.10;5.17;;;14.70;99.90;16.20;97765.00;;;;5081719;28;20215;-71
2022/07/18 05:33:05;;;;;;;5.17;4.67;;;14.80;99.90;16.30;97768.00;;;;5074952;28;20223;-70
2022/07/18 05:35:56;;;;;;;5.90;5.10;;;14.90;99.90;16.40;97762.00;;;;5087810;28;20206;-71
2022/07/18 05:38:44;;;;;;;6.73;5.13;;;15.10;99.90;16.40;97762.00;;;;5083319;28;20206;-71
2022/07/18 05:41:33;;;;;;;7.53;5.53;;;15.20;99.90;16.90;97762.00;;;;5089164;28;20255;-70
2022/07/18 05:44:22;;;;;;;7.47;5.30;;;15.30;99.90;17.00;97765.00;;;;5077081;28;20200;-70
2022/07/18 05:47:10;;;;;;;8.60;5.17;;;15.40;99.90;17.30;97762.00;;;;5081626;28;20211;-69
2022/07/18 05:49:59;;;;;;;5.03;4.63;;;15.60;99.90;17.40;97757.00;;;;5085604;28;20682;-70
2022/07/18 05:52:50;;;;;;;5.40;4.90;;;15.80;99.90;17.70;97754.00;;;;5078525;28;20223;-71
2022/07/18 05:55:38;;;;;;;5.83;5.20;;;16.00;99.90;17.90;97750.00;;;;5080490;28;20199;-70
2022/07/18 05:58:27;;;;;;;4.87;4.37;;;16.20;99.90;18.20;97758.00;;;;5080186;28;20215;-70
2022/07/18 06:01:19;;;;;;;7.23;4.50;;;16.40;99.90;18.50;97750.00;;;;5077542;28;20925;-71
2022/07/18 06:04:08;;;;;;;5.87;5.27;;;16.60;99.90;18.90;97753.00;;;;5074799;28;20207;-70
2022/07/18 06:06:57;;;;;;;4.90;4.13;;;16.80;99.90;18.80;97754.00;;;;5076534;28;20690;-71
2022/07/18 06:09:47;;;;;;;4.27;3.87;;;17.00;99.90;19.00;97761.00;;;;5081307;28;20419;-70
2022/07/18 06:12:36;;;;;;;5.17;3.63;;;17.20;99.90;19.00;97757.00;;;;5079128;28;20215;-71
2022/07/18 06:15:25;;;;;;;9.80;4.83;;;17.40;99.90;19.40;97757.00;;;;5081549;28;20192;-71
2022/07/18 06:18:14;;;;;;;4.50;4.13;;;17.50;99.90;19.60;97775.00;;;;5067466;28;20560;-71
2022/07/18 06:21:04;;;;;;;6.60;4.40;;;17.80;99.90;19.70;97766.00;;;;5085419;28;20223;-71
2022/07/18 06:23:53;;;;;;;6.60;4.37;;;17.90;99.90;20.00;97759.00;;;;5070282;28;20233;-70
2022/07/18 06:26:43;;;;;;;6.33;4.10;;;18.10;99.90;20.40;97769.00;;;;5076249;28;20202;-70
2022/07/18 06:29:32;;;;;;;4.43;4.13;;;18.30;99.90;20.50;97768.00;;;;5077795;28;20596;-70
2022/07/18 06:32:20;;;;;;;5.60;3.97;;;18.50;99.90;20.60;97756.00;;;;5079065;28;20682;-70
2022/07/18 06:35:10;;;;;;;4.53;4.13;;;18.60;99.90;20.60;97757.00;;;;5084935;28;20739;-71
2022/07/18 06:37:59;;;;;;;7.73;3.90;;;18.70;99.90;21.00;97749.00;;;;5075199;28;20207;-71
2022/07/18 06:40:47;;;;;;;16.27;4.77;;;18.90;99.90;21.00;97756.00;;;;5087905;28;20230;-71
2022/07/18 06:43:41;;;;;;;10.70;5.10;;;19.00;99.90;20.90;97747.00;;;;5088535;28;20223;-70
2022/07/18 06:46:29;;;;;;;6.27;3.57;;;19.10;99.90;21.10;97746.00;;;;5086391;28;20204;-71
2022/07/18 06:49:18;;;;;;;5.60;4.17;;;19.20;99.90;21.20;97744.00;;;;5079439;28;20631;-71
2022/07/18 06:52:11;;;;;;;7.00;3.70;;;19.30;99.90;21.30;97742.00;;;;5077786;28;20230;-72
2022/07/18 06:55:00;;;;;;;5.40;3.77;;;19.50;99.90;21.70;97740.00;;;;5079854;28;20724;-72
2022/07/18 06:57:49;;;;;;;4.83;3.70;;;19.60;99.90;21.90;97738.00;;;;5075855;28;20203;-72
2022/07/18 07:00:39;;;;;;;5.07;3.63;;;19.80;99.90;22.10;97739.00;;;;5086179;28;20729;-71
2022/07/18 07:03:28;;;;;;;3.97;3.57;;;19.90;99.90;22.20;97731.00;;;;5076481;28;20717;-71
2022/07/18 07:06:17;;;;;;;4.47;4.07;;;20.10;99.90;22.50;97732.00;;;;5083686;28;20204;-71
2022/07/18 07:09:06;;;;;;;5.23;3.60;;;20.30;99.90;22.50;97722.00;;;;5079621;28;20206;-72
2022/07/18 07:11:55;;;;;;;3.40;3.10;;;20.50;99.90;22.60;97721.00;;;;5079386;28;20238;-71
2022/07/18 07:14:44;;;;;;;5.37;3.60;;;20.60;99.90;22.90;97724.00;;;;5079997;28;20640;-71
2022/07/18 07:17:34;;;;;;;5.03;3.13;;;20.80;99.90;23.20;97733.00;;;;5077830;28;20201;-71
2022/07/18 07:20:23;;;;;;;4.97;3.67;;;21.00;99.90;23.50;97721.00;;;;5080143;28;20216;-71
2022/07/18 07:23:11;;;;;;;5.60;3.50;;;21.20;99.90;23.70;97740.00;;;;5083255;28;20620;-71
2022/07/18 07:26:00;;;;;;;8.77;3.53;;;21.40;99.90;23.80;97725.00;;;;5075088;28;20197;-72
2022/07/18 07:28:49;;;;;;;6.13;3.30;;;21.60;99.90;24.10;97717.00;;;;5086118;28;20204;-70
2022/07/18 07:31:38;;;;;;;3.23;2.93;;;21.80;99.90;24.20;97722.00;;;;5083580;28;20214;-70
2022/07/18 07:34:28;;;;;;;5.43;4.30;;;22.00;99.90;24.40;97711.00;;;;5087007;28;20690;-69
2022/07/18 07:37:17;;;;;;;3.30;3.00;;;22.10;99.90;24.70;97709.00;;;;5087985;28;20206;-69
2022/07/18 07:40:07;;;;;;;4.03;3.40;;;22.40;99.90;24.90;97707.00;;;;5086798;28;20689;-69
2022/07/18 07:43:07;;;;;;;4.43;2.90;;;22.50;99.90;25.10;97712.00;;;;5087869;28;20227;-70
2022/07/18 07:45:56;;;;;;;3.30;2.50;;;22.80;99.90;25.10;97714.00;;;;5087023;28;20563;-70
2022/07/18 07:48:47;;;;;;;3.20;2.90;;;22.90;99.90;25.20;97714.00;;;;5087068;28;20592;-69
2022/07/18 07:51:37;;;;;;;4.90;2.60;;;23.00;99.90;25.40;97708.00;;;;5077754;28;20223;-69
2022/07/18 07:54:26;;;;;;;4.93;2.90;;;23.20;99.90;25.30;97707.00;;;;5077921;28;20709;-69
2022/07/18 07:57:15;;;;;;;3.77;2.73;;;23.30;99.90;25.60;97707.00;;;;5092164;28;20215;-69
2022/07/18 08:00:07;;;;;;;5.53;2.70;;;23.40;99.90;25.60;97708.00;;;;5081052;28;20200;-67
2022/07/18 08:03:00;;;;;;;2.37;2.07;;;23.50;99.90;25.80;97711.00;;;;5089867;28;20231;-68
2022/07/18 08:05:51;;;;;;;12.70;3.33;;;23.60;99.90;26.00;97711.00;;;;5079465;28;20197;-67
2022/07/18 08:08:41;;;;;;;4.30;3.40;;;23.70;99.90;26.00;97710.00;;;;5080993;28;20199;-67
2022/07/18 08:11:29;;;;;;;3.33;2.40;;;23.90;99.90;26.10;97707.00;;;;5073658;28;20589;-69
2022/07/18 08:14:18;;;;;;;1.97;1.80;;;24.00;99.90;26.20;97707.00;;;;5089765;28;20203;-70
2022/07/18 08:17:07;;;;;;;2.57;2.37;;;24.10;99.90;26.40;97711.00;;;;5085905;28;20204;-71
2022/07/18 08:19:56;;;;;;;4.00;1.87;;;24.30;99.90;26.60;97714.00;;;;5079921;28;20200;-69
2022/07/18 08:22:56;;;;;;;4.23;2.83;;;24.40;99.90;26.10;97717.00;;;;5084871;28;20242;-69
2022/07/18 08:25:48;;;;;;;4.50;2.70;;;24.40;98.40;26.50;97720.00;;;;5075536;28;20689;-69
2022/07/18 08:28:37;;;;;;;3.33;2.17;;;24.50;99.50;26.90;97710.00;;;;5072993;28;20212;-70
2022/07/18 08:31:26;;;;;;;7.80;2.73;;;24.60;98.50;27.20;97714.00;;;;5077659;28;20200;-70
2022/07/18 08:34:15;;;;;;;2.80;2.50;;;24.80;98.30;27.40;97715.00;;;;5081877;28;20205;-71
2022/07/18 08:37:04;;;;;;;2.40;2.13;;;24.90;98.10;27.60;97707.00;;;;5077622;28;20586;-68
2022/07/18 08:39:52;;;;;;;2.10;1.83;;;25.10;97.50;27.60;97705.00;;;;5077367;28;20214;-67
2022/07/18 08:42:43;;;;;;;3.97;2.40;;;25.30;96.40;27.20;97704.00;;;;5080696;28;20230;-67
2022/07/18 08:45:44;;;;;;;2.50;2.10;;;25.40;94.20;27.90;97707.00;;;;5080931;28;20324;-68
2022/07/18 08:48:33;;;;;;;2.70;2.50;;;25.60;94.50;28.20;97698.00;;;;5079981;28;20692;-67
2022/07/18 08:51:23;;;;;;;3.90;2.10;;;25.70;94.60;27.80;97697.00;;;;5078840;28;20207;-67
2022/07/18 08:54:12;;;;;;;3.87;2.87;;;25.80;92.70;27.30;97694.00;;;;5081171;28;20980;-67
2022/07/18 08:57:01;;;;;;;3.13;2.43;;;25.90;92.10;26.70;97683.00;;;;5081320;28;20200;-67
2022/07/18 08:59:51;;;;;;;3.97;2.60;;;25.70;91.60;27.10;97684.00;;;;5076146;28;20569;-69
2022/07/18 09:02:40;;;;;;;4.30;2.43;;;25.60;91.40;27.80;97677.00;;;;5081907;28;20258;-69
2022/07/18 09:05:30;;;;;;;6.77;2.57;;;25.70;92.80;28.40;97683.00;;;;5078620;28;20206;-69
2022/07/18 09:08:20;;;;;;;5.43;2.23;;;25.90;92.50;28.60;97679.00;;;;5076880;28;20198;-69
2022/07/18 09:11:13;;;;;;;7.07;4.03;;;26.10;91.60;28.80;97686.00;;;;5082600;28;20219;-69
2022/07/18 09:14:33;;;;;;;3.93;2.80;;;26.40;91.00;28.90;97680.00;;;;5081022;28;20205;-69
2022/07/18 09:17:28;;;;;;;2.60;2.30;;;26.50;90.00;29.10;97684.00;;;;5079197;28;20590;-66
2022/07/18 09:20:17;;;;;;;2.60;2.37;;;26.70;90.80;28.60;97683.00;;;;5081134;28;20209;-66
2022/07/18 09:23:14;;;;;;;3.23;2.60;;;26.80;88.00;29.10;97686.00;;;;5078760;28;20270;-67
2022/07/18 09:26:04;;;;;;;3.30;3.00;;;26.90;90.00;29.30;97688.00;;;;5072879;28;20219;-67
2022/07/18 09:28:54;;;;;;;2.77;2.57;;;27.10;87.80;29.90;97682.00;;;;5079377;28;20210;-66
2022/07/18 09:32:03;;;;;;;3.40;2.60;;;27.20;87.60;30.00;97681.00;;;;5079573;28;20226;-66
2022/07/18 09:34:53;;;;;;;2.93;2.73;;;27.50;86.10;29.20;97676.00;;;;5076540;28;20213;-66
2022/07/18 09:38:01;;;;;;;2.93;2.73;;;27.60;84.00;28.90;97676.00;;;;5075818;28;20213;-66
2022/07/18 09:40:52;;;;;;;2.97;2.27;;;27.60;81.10;29.00;97668.00;;;;5073576;28;20205;-66
2022/07/18 09:43:41;;;;;;;2.77;2.47;;;27.50;76.30;29.70;97670.00;;;;5058399;22;20244;-77
2022/07/18 09:46:30;;;;;;;2.90;2.67;;;27.60;78.60;29.60;97665.00;;;;5022100;28;20215;-75
2022/07/18 09:49:18;;;;;;;2.67;2.30;;;27.60;79.20;30.20;97666.00;;;;5023410;28;20705;-76
2022/07/18 09:52:10;;;;;;;4.03;2.13;;;27.80;78.10;30.20;97662.00;;;;5021434;28;20208;-75
2022/07/18 09:55:06;;;;;;;2.50;2.30;;;27.90;75.90;30.10;97660.00;;;;5017150;28;20206;-75
2022/07/18 09:58:03;;;;;;;2.60;2.40;;;28.10;76.40;30.00;97655.00;;;;5015074;28;20774;-74
2022/07/18 10:00:53;;;;;;;2.43;2.23;;;28.10;74.00;30.80;97657.00;;;;5021005;28;20213;-75
2022/07/18 10:03:42;;;;;;;4.73;2.13;;;28.20;73.80;30.80;97660.00;;;;5019232;28;20218;-76
2022/07/18 10:06:32;;;;;;;2.33;2.13;;;28.40;70.00;30.80;97661.00;;;;5020023;28;20688;-75
2022/07/18 10:09:23;;;;;;;4.20;2.33;;;28.50;69.30;29.90;97659.00;;;;5019869;28;20206;-76
2022/07/18 10:12:12;;;;;;;6.03;2.90;;;28.50;65.00;31.10;97648.00;;;;5019202;28;20699;-76
2022/07/18 10:15:00;;;;;;;4.00;2.30;;;28.60;68.00;31.70;97646.00;;;;5022860;28;20204;-76
2022/07/18 10:17:49;;;;;;;2.50;2.30;;;28.90;68.50;31.80;97643.00;;;;5020304;28;20744;-75
2022/07/18 10:20:43;;;;;;;2.27;2.07;;;29.20;69.40;31.60;97647.00;;;;5018378;28;20230;-72
2022/07/18 10:23:35;;;;;;;5.23;2.03;;;29.30;67.90;32.30;97643.00;;;;5021061;28;20227;-72
2022/07/18 10:26:26;;;;;;;4.85;2.50;;;29.60;67.50;32.40;97638.00;;;;5016699;28;21122;-73
2022/07/18 10:29:17;;;;;;;4.15;2.67;;;29.80;67.20;32.10;97636.00;;;;5021297;28;20434;-73
2022/07/18 10:32:10;;;;;;;3.63;2.05;;;29.90;65.50;32.60;97638.00;;;;5021385;28;20223;-75
2022/07/18 10:35:00;;;;;;;2.70;2.00;;;30.10;64.60;31.20;97632.00;;;;5022026;28;20207;-74
2022/07/18 10:37:48;;;;;;;2.53;2.40;;;30.10;63.20;32.40;97625.00;;;;5026900;28;20198;-74
2022/07/18 10:40:38;;;;;;;3.53;2.05;;;30.10;64.70;32.80;97618.00;;;;5024685;28;20215;-74
2022/07/18 10:43:40;;;;;;;5.82;2.85;;;30.30;63.90;31.50;97614.00;;;;5023938;28;20246;-73
2022/07/18 10:47:05;;;;;;;3.42;2.28;;;30.30;60.30;29.90;97598.00;;;;5028901;28;20200;-74
2022/07/18 10:50:06;;;;;;;2.77;2.57;;;29.70;58.70;31.80;97611.00;;;;5022235;28;20207;-74
2022/07/18 10:53:00;;;;;;;3.70;2.20;;;29.60;61.60;32.40;97600.00;;;;5016998;28;20248;-74
2022/07/18 10:55:48;;;;;;;3.00;2.30;;;29.90;62.60;32.10;97592.00;;;;5021035;28;20204;-74
2022/07/18 10:58:41;;;;;;;3.85;1.90;;;30.00;62.00;33.00;97586.00;;;;5023363;28;20211;-74
2022/07/18 11:01:32;;;;;;;4.50;2.15;;;30.30;61.80;33.50;97585.00;;;;5016279;28;20205;-74
2022/07/18 11:04:26;;;;;;;3.38;2.35;;;30.50;61.30;32.80;97586.00;;;;5014442;28;20201;-75
2022/07/18 11:07:19;;;;;;;2.78;2.15;;;30.80;62.70;30.50;97571.00;;;;5022025;28;20197;-71
2022/07/18 11:10:08;;;;;;;3.85;1.88;;;30.50;59.10;31.20;97575.00;;;;5018848;28;20270;-76
2022/07/18 11:13:22;;;;;;;2.83;1.70;;;30.30;58.20;32.40;97567.00;;;;5018545;28;20243;-75
2022/07/18 11:16:14;;;;;;;2.97;2.42;;;30.20;58.90;33.00;97564.00;;;;5024680;28;20201;-75
2022/07/18 11:19:21;;;;;;;4.65;2.20;;;30.50;58.00;31.90;97570.00;;;;5021127;28;20207;-74
2022/07/18 11:22:10;;;;;;;3.67;2.65;;;30.50;56.60;31.80;97561.00;;;;5018110;28;20213;-73
2022/07/18 11:24:59;;;;;;;2.42;2.22;;;30.40;55.50;32.10;97557.00;;;;5023317;28;20204;-73
2022/07/18 11:27:48;;;;;;;5.45;2.10;;;30.30;56.60;31.70;97556.00;;;;5022408;28;20214;-74
2022/07/18 11:30:39;;;;;;;2.53;2.30;;;30.30;57.20;33.20;97554.00;;;;5025100;28;20212;-77
2022/07/18 11:33:31;;;;;;;5.63;2.67;;;30.50;58.00;33.90;97558.00;;;;5018219;28;20239;-76
2022/07/18 11:36:23;;;;;;;2.90;2.03;;;30.80;58.80;34.00;97549.00;;;;5015092;28;20210;-75
2022/07/18 11:39:13;;;;;;;4.88;2.25;;;31.10;57.80;34.00;97548.00;;;;5013186;28;20213;-76
2022/07/18 11:42:03;;;;;;;2.38;2.13;;;31.40;57.60;34.70;97553.00;;;;5022276;28;20693;-75
2022/07/18 11:45:00;;;;;;;4.45;2.60;;;31.70;58.40;34.80;97548.00;;;;5023157;28;20561;-76
2022/07/18 11:47:51;;;;;;;2.38;2.00;;;32.00;57.50;35.00;97550.00;;;;5019673;28;20226;-77
2022/07/18 11:50:43;;;;;;;3.10;2.15;;;32.30;57.20;32.50;97539.00;;;;5022744;28;20199;-78
2022/07/18 11:53:32;;;;;;;3.65;2.42;;;32.10;53.00;31.60;97541.00;;;;5024170;28;20239;-75
2022/07/18 11:56:22;;;;;;;2.10;1.90;;;31.60;52.70;31.20;97534.00;;;;5022476;28;20209;-79
2022/07/18 11:59:11;;;;;;;3.03;1.92;;;30.90;53.60;32.20;97533.00;;;;5021769;28;20298;-77
2022/07/18 12:01:59;;;;;;;2.15;1.60;;;30.20;64.20;32.00;97529.00;;;;5021458;28;20401;-73
2022/07/18 12:04:48;;;;;;;4.75;2.38;;;30.60;54.90;32.90;97529.00;;;;5026256;28;20204;-75
2022/07/18 12:07:38;;;;;;;4.13;2.22;;;30.80;55.50;34.30;97526.00;;;;5027660;28;20253;-73
2022/07/18 12:10:28;;;;;;;3.25;1.88;;;;;33.30;97529.00;;;;5020084;28;20223;-74
2022/07/18 12:13:16;;;;;;;2.70;2.13;;;31.40;56.30;33.40;97525.00;;;;5021327;28;20615;-74
2022/07/18 12:16:06;;;;;;;3.03;1.88;;;31.60;56.40;34.80;97520.00;;;;5022647;28;20220;-74
2022/07/18 12:18:56;;;;;;;3.25;1.83;;;32.00;54.50;35.60;97503.00;;;;5018657;28;20205;-76
2022/07/18 12:21:49;;;;;;;2.17;1.98;;;32.40;55.60;35.30;97525.00;;;;5023287;28;20210;-76
2022/07/18 12:24:41;;;;;;;3.17;1.95;;;32.70;55.00;34.90;97520.00;;;;5023087;28;20216;-71
2022/07/18 12:27:37;;;;;;;9.07;2.60;;;32.90;54.10;35.70;97522.00;;;;5017568;28;20661;-74
2022/07/18 12:30:26;;;;;;;3.67;2.15;;;33.00;53.80;34.40;97518.00;;;;5022991;28;20212;-73
2022/07/18 12:33:15;;;;;;;3.20;2.17;;;33.10;53.30;34.60;97519.00;;;;5017935;28;20232;-76
2022/07/18 12:36:04;;;;;;;4.60;2.33;;;33.00;53.20;34.10;97515.00;;;;5016217;28;20240;-74
2022/07/18 12:39:01;;;;;;;4.63;2.55;;;32.90;53.00;34.90;97517.00;;;;5022680;28;20213;-74